Accueil
METAR-TAF:

METAR-TAF

Aéroports :

Lawrence Municipal Airport

Lawrence, Massachusetts, États-Unis

latitude: 42-42-47N, longitude: 071-07-33W, altitude: 45 m

Observation

Le bulletin a été fait il y a 49 minutes, à 22:54 UTC
Vent 5 kt de direction variable
Température 25°C
Humidité 50%
Pression 1010 hPa
Visibilité: 16.1 km
Quelques nuages à une hauteur de 8000 ft

METAR: KLWM 212254Z VRB05KT 10SM FEW080 25/14 A2982 RMK AO2 SLP097 T02500139

Heure: 19:43 (23:43 UTC)


TAF: absent

Observations et prévisions météorologiques de plus de 4000 aéroports (messages METAR et TAF).

Les stations disponibles sont représentées par des disques jaunes et rouges sur la carte.

Passer la souris dessus pour voir le nom de la station.

Cliquer dessus pour voir les observations et prévisions météorologiques.

Pour changer de carte: cliquez sur les boutons verts avec une croix noire pour zoomer, sur le bouton vert avec un tiret pour effectuer un zoom arrière, ou sur les flèches vertes pour les cartes adjacentes.


METAR-TAF: